KAPC

Napa County Airport

Napa, California, USA

KAPC 110854Z AUTO VRB03KT 10SM CLR 04/01 A3026 RMK AO2 SLP236 T00440011 50002

Observed Flight Rules
Dec-11 @ 08:54 UTC (29 minutes ago) Visual Flight Rules
Wind Visibility Clouds
Variable at 3 knots 10 miles
  • Clear skies
Temperatures Readings
Current 4°C / 39°F
Dewpoint 1°C / 34°F
Humidity 81%
Altimeter 30.26" Hg
Pressure 1023.6 hPa
Elevation 13
Observed Flight Rules
Dec-11 @ 08:54 UTC
(29 minutes ago)
VFR
Wind Visibility
Variable at 3 knots 10 miles
Clouds
  • Clear skies
Temperature Dewpoint
4°C / 39°F 1°C / 34°F
Humidity Altimeter Pressure
81% 30.26" Hg 1023.6 hPa